Time;durP1;ratioP1;P1;durP2;ratioP2;P2;SDS_P1;SDS_P2;PMS_P1;PMS_P2;Temp;Humidity;BMP_temperature;BMP_pressure;BME280_temperature;BME280_humidity;BME280_pressure;Samples;Min_cycle;Max_cycle;Signal;HPM_P1;HPM_P2
2022/07/22 00:01:23;;;;;;;5.97;4.80;;;;;;;17.88;88.70;101544.59;5093543;28;20040;-68
2022/07/22 00:03:48;;;;;;;7.13;4.90;;;;;;;17.86;88.80;101554.72;5093664;28;20154;-69
2022/07/22 00:06:14;;;;;;;6.20;5.28;;;;;;;17.82;88.92;101545.34;5093894;28;20047;-68
2022/07/22 00:08:39;;;;;;;5.53;4.78;;;;;;;17.83;89.05;101560.50;5092619;28;20142;-69
2022/07/22 00:11:06;;;;;;;8.57;5.10;;;;;;;17.82;89.22;101558.00;5093220;28;20450;-68
2022/07/22 00:13:31;;;;;;;8.40;6.38;;;;;;;17.77;89.61;101558.56;5093010;28;20036;-69
2022/07/22 00:15:58;;;;;;;7.43;5.35;;;;;;;17.75;89.78;101551.72;5092977;28;20119;-71
2022/07/22 00:18:23;;;;;;;9.73;4.93;;;;;;;17.58;90.39;101529.50;5074718;28;20034;-68
2022/07/22 00:20:49;;;;;;;6.07;5.20;;;;;;;17.67;90.00;101549.09;5074210;28;20374;-68
2022/07/22 00:23:15;;;;;;;5.97;5.03;;;;;;;17.68;90.62;101557.03;5058088;28;20036;-68
2022/07/22 00:25:41;;;;;;;6.13;5.32;;;;;;;17.63;90.68;101544.06;5074622;28;20046;-68
2022/07/22 00:28:06;;;;;;;9.02;5.22;;;;;;;17.64;90.37;101558.41;5074592;28;20040;-68
2022/07/22 00:30:36;;;;;;;6.60;5.05;;;;;;;17.63;90.36;101560.22;5092138;28;20565;-68
2022/07/22 00:33:27;;;;;;;7.32;5.18;;;;;;;17.58;90.33;101551.88;5078113;28;20043;-69
2022/07/22 00:35:52;;;;;;;6.40;4.82;;;;;;;17.57;90.43;101561.00;5092549;28;20411;-70
2022/07/22 00:38:18;;;;;;;8.05;5.72;;;;;;;17.45;90.93;101546.34;5057751;28;20403;-70
2022/07/22 00:40:43;;;;;;;9.45;5.90;;;;;;;17.54;90.75;101572.16;5074625;28;20059;-68
2022/07/22 00:43:09;;;;;;;8.57;6.30;;;;;;;17.38;91.29;101548.16;5092498;28;20040;-69
2022/07/22 00:45:35;;;;;;;7.88;6.00;;;;;;;17.45;91.62;101567.91;5074482;28;20097;-69
2022/07/22 00:48:02;;;;;;;7.10;6.35;;;;;;;17.46;92.03;101568.75;5074609;28;20377;-68
2022/07/22 00:50:27;;;;;;;6.38;5.18;;;;;;;17.38;91.69;101553.53;5074542;28;20077;-68
2022/07/22 00:52:53;;;;;;;9.13;5.88;;;;;;;17.34;91.59;101560.28;5092711;28;20036;-69
2022/07/22 00:55:18;;;;;;;11.70;5.97;;;;;;;17.32;91.67;101554.25;5074108;28;20067;-68
2022/07/22 00:57:44;;;;;;;8.10;6.38;;;;;;;17.42;91.66;101564.75;5074233;28;20035;-69
2022/07/22 01:00:15;;;;;;;6.32;5.43;;;;;;;17.29;92.14;101541.16;5073883;28;20034;-68
2022/07/22 01:02:40;;;;;;;6.70;5.30;;;;;;;17.37;91.93;101565.31;5092790;28;20445;-69
2022/07/22 01:05:09;;;;;;;9.70;5.97;;;;;;;17.40;92.06;101562.25;5059762;28;20036;-70
2022/07/22 01:07:37;;;;;;;8.45;5.88;;;;;;;17.37;92.37;101565.31;5092634;28;20036;-68
2022/07/22 01:10:03;;;;;;;7.95;6.43;;;;;;;17.34;91.86;101560.28;5074535;28;20498;-68
2022/07/22 01:12:29;;;;;;;10.18;5.55;;;;;;;17.32;92.21;101565.03;5093013;28;20040;-69
2022/07/22 01:14:54;;;;;;;6.22;5.43;;;;;;;17.32;91.97;101567.72;5074177;28;20032;-70
2022/07/22 01:17:20;;;;;;;6.30;4.82;;;;;;;17.29;92.48;101562.72;5074373;28;20032;-69
2022/07/22 01:19:45;;;;;;;7.32;5.70;;;;;;;17.30;92.03;101567.06;5091942;28;20035;-69
2022/07/22 01:22:11;;;;;;;7.78;6.95;;;;;;;17.27;92.30;101562.91;5092121;28;20032;-69
2022/07/22 01:24:37;;;;;;;6.65;5.50;;;;;;;17.26;92.45;101568.47;5092257;28;20040;-69
2022/07/22 01:27:02;;;;;;;8.45;6.13;;;;;;;17.25;92.06;101564.94;5092021;28;20505;-68
2022/07/22 01:29:28;;;;;;;7.35;5.95;;;;;;;17.23;92.74;101558.91;5091721;28;20035;-69
2022/07/22 01:31:56;;;;;;;10.75;6.55;;;;;;;17.22;93.05;101564.50;5091974;28;20052;-68
2022/07/22 01:34:50;;;;;;;9.45;6.38;;;;;;;17.23;92.75;101564.31;5091701;28;20506;-69
2022/07/22 01:37:15;;;;;;;11.25;6.20;;;;;;;17.22;93.20;101561.78;5073791;28;20044;-69
2022/07/22 01:39:41;;;;;;;8.23;6.13;;;;;;;17.25;93.09;101561.41;5073628;28;20040;-70
2022/07/22 01:42:07;;;;;;;7.63;5.30;;;;;;;17.27;93.04;101562.06;5092134;28;20036;-68
2022/07/22 01:44:32;;;;;;;8.85;6.00;;;;;;;17.30;92.69;101570.59;5073711;28;20071;-69
2022/07/22 01:46:58;;;;;;;7.60;5.40;;;;;;;17.28;92.75;101566.44;5091894;28;20044;-68
2022/07/22 01:49:25;;;;;;;7.40;6.00;;;;;;;17.27;92.74;101565.59;5091829;28;20044;-69
2022/07/22 01:51:50;;;;;;;10.32;6.03;;;;;;;17.25;92.99;101561.41;5091725;28;20036;-68
2022/07/22 01:54:16;;;;;;;7.38;6.18;;;;;;;17.27;92.60;101570.13;5073676;28;20039;-68
2022/07/22 01:56:41;;;;;;;7.97;5.97;;;;;;;17.31;92.54;101566.03;5091605;28;20071;-68
2022/07/22 01:59:07;;;;;;;7.25;6.43;;;;;;;17.35;92.81;101575.44;5091809;28;20479;-68
2022/07/22 02:01:33;;;;;;;6.57;5.78;;;;;;;17.34;92.53;101571.06;5091859;28;20097;-69
2022/07/22 02:03:58;;;;;;;11.18;6.20;;;;;;;17.34;92.30;101568.38;5091705;28;20492;-68
2022/07/22 02:06:24;;;;;;;9.25;6.05;;;;;;;17.41;92.05;101577.38;5091708;28;20487;-69
2022/07/22 02:08:49;;;;;;;8.07;6.05;;;;;;;17.40;92.29;101575.72;5091514;28;20032;-69
2022/07/22 02:11:15;;;;;;;14.15;10.68;;;;;;;17.44;92.69;101568.09;5091445;28;20098;-68
2022/07/22 02:13:40;;;;;;;13.38;9.02;;;;;;;17.44;92.23;101571.63;5091915;28;20036;-69
2022/07/22 02:16:06;;;;;;;7.82;6.43;;;;;;;17.51;91.91;101571.69;5091715;28;20067;-69
2022/07/22 02:18:31;;;;;;;9.23;6.45;;;;;;;17.53;91.80;101575.03;5091642;28;20036;-69
2022/07/22 02:20:57;;;;;;;8.77;5.93;;;;;;;17.52;91.67;101574.19;5091507;28;20119;-69
2022/07/22 02:23:23;;;;;;;8.52;6.68;;;;;;;17.57;91.39;101573.63;5091415;28;20024;-69
2022/07/22 02:25:48;;;;;;;10.07;6.45;;;;;;;17.60;91.50;101579.47;5091231;28;20042;-71
2022/07/22 02:28:14;;;;;;;7.50;6.15;;;;;;;17.64;91.58;101591.56;5091438;28;20038;-69
2022/07/22 02:30:40;;;;;;;11.00;6.25;;;;;;;17.70;91.18;101581.09;5092124;28;20530;-68
2022/07/22 02:33:06;;;;;;;11.23;5.82;;;;;;;17.72;90.62;101574.47;5095250;28;20408;-68
2022/07/22 02:35:32;;;;;;;8.75;6.60;;;;;;;17.75;90.22;101567.88;5094956;28;20059;-69
2022/07/22 02:37:57;;;;;;;9.40;6.25;;;;;;;17.79;90.37;101578.06;5095038;28;20505;-69
2022/07/22 02:40:23;;;;;;;10.38;6.82;;;;;;;17.80;90.40;101581.59;5094816;28;20036;-69
2022/07/22 02:42:48;;;;;;;11.98;6.07;;;;;;;17.84;89.42;101577.50;5094695;28;20036;-68
2022/07/22 02:45:14;;;;;;;8.57;5.63;;;;;;;17.89;89.54;101585.84;5095050;28;20440;-69
2022/07/22 02:47:53;;;;;;;13.90;6.13;;;;;;;17.92;88.93;101582.75;5076598;28;20040;-69
2022/07/22 02:50:21;;;;;;;7.75;6.63;;;;;;;17.89;87.73;101569.69;5076486;28;20055;-70
2022/07/22 02:52:47;;;;;;;8.27;6.57;;;;;;;18.01;87.33;101578.94;5076463;28;20040;-69
2022/07/22 02:55:12;;;;;;;8.57;6.03;;;;;;;18.05;87.43;101577.53;5094767;28;20039;-68
2022/07/22 02:57:38;;;;;;;8.38;5.30;;;;;;;18.15;87.36;101583.44;5076719;28;20391;-69
2022/07/22 03:00:05;;;;;;;7.07;5.90;;;;;;;18.20;86.85;101577.44;5094655;28;20039;-70
2022/07/22 03:02:31;;;;;;;9.32;5.90;;;;;;;18.21;86.13;101574.59;5094461;28;20040;-67
2022/07/22 03:04:56;;;;;;;10.10;7.55;;;;;;;18.30;86.43;101571.75;5076428;28;20032;-68
2022/07/22 03:07:22;;;;;;;7.15;6.40;;;;;;;18.86;84.89;101583.44;5076081;28;20039;-70
2022/07/22 03:09:47;;;;;;;8.40;6.03;;;;;;;20.12;80.29;101584.84;5094382;28;20035;-68
2022/07/22 03:12:13;;;;;;;9.93;5.53;;;;;;;21.83;73.02;101578.34;5094389;28;20084;-68
2022/07/22 03:14:38;;;;;;;7.43;4.90;;;;;;;23.20;66.86;101594.84;5094347;28;20043;-68
2022/07/22 03:17:04;;;;;;;5.63;4.85;;;;;;;23.90;63.86;101574.31;5094122;28;20036;-69
2022/07/22 03:19:29;;;;;;;4.22;3.83;;;;;;;24.44;61.05;101579.81;5094246;28;20555;-68
2022/07/22 03:21:55;;;;;;;4.35;3.95;;;;;;;24.91;59.75;101581.50;5094113;28;20046;-70
2022/07/22 03:24:20;;;;;;;6.25;4.25;;;;;;;25.54;58.73;101579.88;5094256;28;20427;-69
2022/07/22 03:26:46;;;;;;;6.90;3.85;;;;;;;26.16;57.06;101580.78;5094162;28;20123;-67
2022/07/22 03:29:11;;;;;;;6.30;3.45;;;;;;;26.66;55.14;101590.13;5094115;28;20518;-68
2022/07/22 03:31:37;;;;;;;4.10;3.33;;;;;;;26.99;53.87;101586.53;5093729;28;20060;-68
2022/07/22 03:34:03;;;;;;;7.93;4.50;;;;;;;27.14;52.98;101584.00;5075755;28;20044;-68
2022/07/22 03:36:29;;;;;;;4.30;3.85;;;;;;;26.95;53.49;101583.47;5075787;28;20085;-68
2022/07/22 03:38:55;;;;;;;5.70;3.03;;;;;;;26.17;54.54;101579.72;5093866;28;20232;-67
2022/07/22 03:41:21;;;;;;;5.55;3.53;;;;;;;25.36;57.83;101583.56;5093660;28;20441;-68
2022/07/22 03:43:47;;;;;;;5.07;3.28;;;;;;;24.43;60.90;101578.16;5093941;28;20032;-70
2022/07/22 03:46:13;;;;;;;7.32;3.85;;;;;;;23.86;62.34;101577.72;5093817;28;20035;-70
2022/07/22 03:48:38;;;;;;;4.38;3.10;;;;;;;23.65;62.57;101579.03;5093724;28;20044;-67
2022/07/22 03:51:29;;;;;;;7.97;3.28;;;;;;;23.19;63.95;101580.41;5093865;28;20063;-68
2022/07/22 03:53:54;;;;;;;7.32;4.22;;;;;;;22.82;65.44;101580.38;5093722;28;20438;-69
2022/07/22 03:56:20;;;;;;;5.03;4.03;;;;;;;22.50;66.87;101571.44;5058904;28;20059;-69
2022/07/22 03:58:45;;;;;;;7.28;3.53;;;;;;;22.25;67.40;101581.44;5093630;28;20063;-69
2022/07/22 04:01:11;;;;;;;4.45;3.30;;;;;;;22.26;67.87;101580.38;5093567;28;20115;-69
2022/07/22 04:03:36;;;;;;;6.38;4.28;;;;;;;23.36;64.77;101577.91;5075494;28;20039;-69
2022/07/22 04:06:02;;;;;;;5.85;4.18;;;;;;;24.83;59.94;101572.81;5093698;28;20043;-70
2022/07/22 04:08:27;;;;;;;5.43;4.13;;;;;;;26.01;55.98;101583.25;5093501;28;20142;-68
2022/07/22 04:10:53;;;;;;;6.43;3.88;;;;;;;26.83;53.26;101572.59;5093496;28;20465;-68
2022/07/22 04:13:18;;;;;;;8.20;3.60;;;;;;;27.36;51.58;101568.44;5093556;28;20040;-69
2022/07/22 04:15:44;;;;;;;4.15;3.42;;;;;;;27.87;50.42;101571.78;5093525;28;20039;-69
2022/07/22 04:18:09;;;;;;;6.03;4.05;;;;;;;28.18;49.44;101567.44;5092926;28;20040;-69
2022/07/22 04:20:35;;;;;;;4.88;3.60;;;;;;;28.44;47.17;101560.28;5093162;28;20073;-69
2022/07/22 04:23:00;;;;;;;5.18;3.78;;;;;;;28.50;46.25;101561.13;5074832;28;20089;-69
2022/07/22 04:25:26;;;;;;;6.05;4.07;;;;;;;28.48;46.34;101550.44;5092951;28;20043;-70
2022/07/22 04:27:52;;;;;;;7.53;3.97;;;;;;;28.50;46.31;101550.19;5092969;28;20070;-70
2022/07/22 04:30:18;;;;;;;6.68;3.42;;;;;;;28.57;46.06;101543.38;5092616;28;20479;-72
2022/07/22 04:32:44;;;;;;;5.45;3.72;;;;;;;28.92;45.06;101558.44;5092516;28;20101;-69
2022/07/22 04:35:12;;;;;;;5.32;4.03;;;;;;;29.22;44.24;101574.22;5092931;28;20118;-69
2022/07/22 04:37:37;;;;;;;5.72;3.58;;;;;;;29.52;42.47;101570.81;5092733;28;20043;-69
2022/07/22 04:40:08;;;;;;;7.60;4.40;;;;;;;29.76;42.60;101565.63;5092662;28;20411;-69
2022/07/22 04:42:34;;;;;;;5.15;3.78;;;;;;;29.71;42.53;101558.22;5092647;28;20066;-68
2022/07/22 04:44:59;;;;;;;5.93;3.58;;;;;;;29.43;43.55;101569.63;5092513;28;20077;-68
2022/07/22 04:47:25;;;;;;;4.90;4.38;;;;;;;29.02;44.43;101579.59;5092351;28;20066;-69
2022/07/22 04:49:50;;;;;;;7.90;4.82;;;;;;;28.48;45.08;101566.06;5092790;28;20455;-69
2022/07/22 04:52:16;;;;;;;4.82;3.35;;;;;;;27.89;46.65;101568.78;5074390;28;20090;-68
2022/07/22 04:54:41;;;;;;;6.50;3.97;;;;;;;27.37;47.61;101575.56;5092206;28;20036;-70
2022/07/22 04:57:07;;;;;;;7.57;4.72;;;;;;;27.23;48.21;101566.09;5092373;28;20032;-68
2022/07/22 04:59:32;;;;;;;7.25;3.92;;;;;;;27.22;48.86;101569.91;5092345;28;20066;-69
2022/07/22 05:01:58;;;;;;;11.30;3.70;;;;;;;27.28;47.86;101566.16;5092272;28;20042;-68
2022/07/22 05:04:23;;;;;;;5.72;3.72;;;;;;;27.44;47.76;101569.91;5092318;28;20032;-70
2022/07/22 05:06:49;;;;;;;5.60;3.33;;;;;;;27.57;46.81;101547.63;5092177;28;20051;-69
2022/07/22 05:09:14;;;;;;;5.22;3.80;;;;;;;27.73;46.24;101562.31;5092113;28;20043;-70
2022/07/22 05:11:40;;;;;;;8.82;4.70;;;;;;;27.57;47.95;101571.44;5091742;28;20380;-68
2022/07/22 05:14:05;;;;;;;7.53;4.72;;;;;;;27.12;48.35;101565.13;5092490;28;20028;-68
2022/07/22 05:16:31;;;;;;;8.50;4.80;;;;;;;26.70;50.03;101567.50;5091958;28;20036;-69
2022/07/22 05:18:56;;;;;;;11.35;4.30;;;;;;;26.22;51.78;101568.88;5073892;28;20535;-68
2022/07/22 05:21:22;;;;;;;7.88;4.10;;;;;;;25.90;51.89;101567.75;5091683;28;20043;-69
2022/07/22 05:23:47;;;;;;;7.43;3.58;;;;;;;25.51;52.35;101559.38;5095800;28;20067;-69
2022/07/22 05:26:13;;;;;;;10.10;4.85;;;;;;;24.92;53.29;101560.53;5100813;28;20031;-67
2022/07/22 05:28:38;;;;;;;7.43;3.70;;;;;;;24.46;54.51;101564.06;5080774;28;20060;-67
2022/07/22 05:31:07;;;;;;;9.43;4.22;;;;;;;24.08;56.75;101563.38;5098254;28;20055;-67
2022/07/22 05:33:33;;;;;;;10.93;5.05;;;;;;;23.85;56.59;101576.06;5097740;28;20048;-69
2022/07/22 05:35:59;;;;;;;11.73;3.97;;;;;;;23.54;57.22;101564.31;5092120;28;20032;-69
2022/07/22 05:38:24;;;;;;;6.45;4.20;;;;;;;23.54;58.18;101567.03;5073937;28;20032;-69
2022/07/22 05:40:53;;;;;;;8.95;4.10;;;;;;;23.55;58.23;101568.69;5092484;28;20391;-69
2022/07/22 05:43:19;;;;;;;5.40;3.70;;;;;;;23.57;58.24;101563.06;5091684;28;20047;-67
2022/07/22 05:45:44;;;;;;;6.03;4.63;;;;;;;23.48;58.95;101551.63;5091670;28;20484;-68
2022/07/22 05:48:10;;;;;;;7.50;4.70;;;;;;;23.63;57.39;101568.41;5091749;28;20047;-69
2022/07/22 05:50:36;;;;;;;8.82;5.20;;;;;;;23.62;57.87;101563.19;5091542;28;20028;-70
2022/07/22 05:53:02;;;;;;;5.72;4.70;;;;;;;23.51;57.68;101545.75;5074265;28;20043;-71
2022/07/22 05:55:31;;;;;;;6.40;4.70;;;;;;;23.68;57.70;101565.81;5091584;28;20044;-69
2022/07/22 05:57:56;;;;;;;7.68;5.38;;;;;;;23.65;57.36;101558.13;5092009;28;20068;-69
2022/07/22 06:00:22;;;;;;;8.15;5.30;;;;;;;23.69;57.53;101564.75;5091440;28;20051;-69
2022/07/22 06:02:48;;;;;;;6.80;5.18;;;;;;;23.72;57.67;101560.78;5091546;28;20040;-68
2022/07/22 06:05:13;;;;;;;7.72;5.43;;;;;;;23.72;57.25;101563.50;5091617;28;20028;-70
2022/07/22 06:07:39;;;;;;;9.30;5.13;;;;;;;23.71;57.81;101562.66;5095363;28;20395;-68
2022/07/22 06:10:04;;;;;;;10.95;6.80;;;;;;;23.66;58.93;101557.06;5077436;28;20118;-71
2022/07/22 06:12:30;;;;;;;8.50;6.25;;;;;;;23.65;58.23;101560.00;5095269;28;20043;-69
2022/07/22 06:14:56;;;;;;;14.02;6.20;;;;;;;23.58;56.67;101549.22;5095291;28;20044;-69
2022/07/22 06:17:21;;;;;;;15.20;7.03;;;;;;;23.68;56.24;101562.25;5077125;28;20027;-69
2022/07/22 06:19:46;;;;;;;13.30;7.60;;;;;;;23.64;56.03;101558.34;5095471;28;20060;-70
2022/07/22 06:22:12;;;;;;;12.43;6.55;;;;;;;23.65;56.07;101560.84;5095268;28;20090;-68
2022/07/22 06:24:37;;;;;;;12.45;7.38;;;;;;;23.70;56.54;101560.97;5095396;28;20117;-70
2022/07/22 06:27:03;;;;;;;13.10;7.03;;;;;;;23.72;56.07;101555.34;5095103;28;20028;-70
2022/07/22 06:29:29;;;;;;;12.43;7.38;;;;;;;23.74;56.43;101556.75;5094742;28;20131;-70
2022/07/22 06:31:55;;;;;;;17.48;7.75;;;;;;;23.56;55.12;101523.34;5059535;28;20059;-71
2022/07/22 06:34:46;;;;;;;13.80;7.93;;;;;;;23.77;56.28;101556.28;5094868;28;20113;-70
2022/07/22 06:37:12;;;;;;;14.15;8.70;;;;;;;23.85;55.76;101557.03;5094860;28;20518;-67
2022/07/22 06:39:37;;;;;;;17.48;9.18;;;;;;;23.87;55.45;101557.63;5094808;28;20043;-72
2022/07/22 06:42:06;;;;;;;14.98;8.75;;;;;;;23.89;55.57;101561.75;5094335;28;20034;-69
2022/07/22 06:44:32;;;;;;;14.18;9.05;;;;;;;23.92;55.28;101568.63;5076148;28;20550;-69
2022/07/22 06:46:58;;;;;;;18.42;9.45;;;;;;;23.91;56.28;101564.25;5077388;28;20032;-69
2022/07/22 06:49:23;;;;;;;15.82;7.93;;;;;;;23.91;56.92;101573.25;5077188;28;20124;-68
2022/07/22 06:51:49;;;;;;;11.10;7.28;;;;;;;23.83;56.33;101572.75;5076404;28;20188;-69
2022/07/22 06:54:15;;;;;;;15.57;8.52;;;;;;;23.84;57.80;101574.41;5059751;28;20051;-69
2022/07/22 06:56:41;;;;;;;10.18;7.90;;;;;;;23.87;57.50;101566.59;5094149;28;20035;-70
2022/07/22 06:59:06;;;;;;;12.10;8.07;;;;;;;23.90;57.26;101571.59;5094344;28;20361;-70
2022/07/22 07:01:32;;;;;;;10.55;8.05;;;;;;;23.90;58.05;101568.03;5094362;28;20036;-70
2022/07/22 07:03:58;;;;;;;11.82;8.43;;;;;;;23.87;57.59;101571.22;5076029;28;20058;-69
2022/07/22 07:06:24;;;;;;;16.75;10.40;;;;;;;23.89;56.75;101567.22;5075411;28;20028;-73
2022/07/22 07:08:50;;;;;;;12.55;9.07;;;;;;;23.89;57.87;101564.50;5094224;28;20047;-72
2022/07/22 07:11:15;;;;;;;12.55;9.55;;;;;;;23.90;57.24;101557.97;5058982;28;20078;-70
2022/07/22 07:13:44;;;;;;;20.88;10.68;;;;;;;23.97;57.58;101568.75;5061007;28;20407;-71
2022/07/22 07:16:10;;;;;;;19.95;10.00;;;;;;;23.98;56.61;101573.97;5061065;28;20040;-67
2022/07/22 07:18:36;;;;;;;19.75;9.45;;;;;;;24.03;56.73;101576.03;5096384;28;20063;-71
2022/07/22 07:21:03;;;;;;;13.00;8.80;;;;;;;24.10;57.03;101568.59;5094298;28;20066;-69
2022/07/22 07:23:29;;;;;;;15.57;8.88;;;;;;;24.11;57.22;101564.78;5094069;28;20032;-68
2022/07/22 07:25:54;;;;;;;18.10;10.63;;;;;;;24.13;55.16;101573.56;5094021;28;20094;-67
2022/07/22 07:28:20;;;;;;;22.27;9.70;;;;;;;24.10;55.00;101565.84;5094532;28;20032;-75
2022/07/22 07:30:46;;;;;;;14.70;9.82;;;;;;;24.16;55.80;101573.09;5094394;28;20143;-73
2022/07/22 07:33:12;;;;;;;15.45;10.10;;;;;;;24.20;55.44;101573.44;5095330;28;20072;-73
2022/07/22 07:35:38;;;;;;;12.32;10.40;;;;;;;24.22;56.30;101565.88;5094177;28;20078;-72
2022/07/22 07:38:03;;;;;;;13.95;9.43;;;;;;;24.26;54.87;101573.34;5059066;28;20032;-72
2022/07/22 07:40:29;;;;;;;17.10;9.45;;;;;;;24.13;55.13;101553.69;5094179;28;20476;-70
2022/07/22 07:42:55;;;;;;;13.32;9.43;;;;;;;24.30;55.28;101568.31;5094605;28;20058;-81
2022/07/22 07:45:23;;;;;;;12.45;9.98;;;;;;;24.29;54.97;101567.47;5075881;28;20036;-68
2022/07/22 07:47:49;;;;;;;12.25;9.65;;;;;;;24.40;55.35;101576.72;5075531;28;20093;-82
2022/07/22 07:50:15;;;;;;;27.33;10.23;;;;;;;24.44;56.28;101574.34;5059086;28;20478;-68
2022/07/22 07:52:44;;;;;;;13.07;9.85;;;;;;;24.49;55.71;101571.75;5093155;28;20036;-67
2022/07/22 07:55:12;;;;;;;18.55;9.63;;;;;;;24.47;55.18;101565.72;5093414;28;20499;-67
2022/07/22 07:57:37;;;;;;;13.00;9.88;;;;;;;24.47;55.20;101573.88;5093296;28;20443;-68
2022/07/22 08:00:07;;;;;;;16.33;10.55;;;;;;;24.47;54.27;101571.16;5093314;28;20120;-69
2022/07/22 08:02:33;;;;;;;10.75;8.95;;;;;;;24.54;53.96;101569.97;5093188;28;20032;-67
2022/07/22 08:04:58;;;;;;;16.38;9.50;;;;;;;24.59;53.36;101575.56;5075011;28;20035;-68
2022/07/22 08:07:24;;;;;;;17.13;10.52;;;;;;;24.61;53.01;101570.72;5074720;28;20078;-67
2022/07/22 08:09:49;;;;;;;12.98;9.70;;;;;;;24.67;51.26;101568.94;5092993;28;20441;-67
2022/07/22 08:12:15;;;;;;;10.15;8.98;;;;;;;24.63;50.27;101562.31;5092972;28;20043;-68
2022/07/22 08:14:41;;;;;;;17.02;11.00;;;;;;;24.70;51.29;101568.47;5074526;28;20028;-68
2022/07/22 08:17:06;;;;;;;12.07;9.05;;;;;;;24.71;50.05;101570.13;5074745;28;20043;-67
2022/07/22 08:19:32;;;;;;;11.45;10.07;;;;;;;24.59;50.81;101553.78;5092594;28;20064;-67
2022/07/22 08:21:57;;;;;;;13.02;8.52;;;;;;;24.74;50.65;101575.09;5093050;28;20039;-67
2022/07/22 08:24:23;;;;;;;10.65;9.55;;;;;;;24.77;50.58;101574.63;5059761;28;20131;-68
2022/07/22 08:26:49;;;;;;;14.02;9.68;;;;;;;24.74;50.84;101557.91;5094302;28;20193;-68
2022/07/22 08:29:14;;;;;;;14.30;10.05;;;;;;;24.86;50.48;101556.00;5092482;28;20388;-68
2022/07/22 08:31:41;;;;;;;11.63;9.15;;;;;;;24.89;49.94;101561.84;5092345;28;20142;-68
2022/07/22 08:34:07;;;;;;;10.70;9.10;;;;;;;24.92;49.88;101555.06;5074160;28;20419;-69
2022/07/22 08:36:32;;;;;;;12.20;9.35;;;;;;;24.81;50.38;101542.28;5057191;28;20109;-69
2022/07/22 08:38:58;;;;;;;10.48;9.35;;;;;;;24.94;49.16;101559.22;5074363;28;20031;-69
2022/07/22 08:41:24;;;;;;;10.85;9.02;;;;;;;24.99;50.50;101559.34;5092511;28;20072;-69
2022/07/22 08:43:52;;;;;;;16.02;8.70;;;;;;;25.00;50.25;101562.91;5074087;28;20047;-68
2022/07/22 08:46:17;;;;;;;10.73;8.93;;;;;;;24.83;51.10;101549.13;5057507;28;20074;-68
2022/07/22 08:48:43;;;;;;;10.07;9.00;;;;;;;24.83;51.84;101553.75;5073565;28;20055;-72
2022/07/22 08:51:15;;;;;;;10.60;9.07;;;;;;;24.93;51.78;101557.56;5091197;28;20039;-74
2022/07/22 08:53:41;;;;;;;24.55;11.18;;;;;;;24.92;52.12;101557.81;5090731;28;20495;-77
2022/07/22 08:56:07;;;;;;;35.05;12.15;;;;;;;25.00;53.03;101563.75;5057318;28;20052;-75
2022/07/22 08:58:39;;;;;;;16.75;10.07;;;;;;;24.95;52.93;101551.88;5092387;28;20038;-78
2022/07/22 09:01:10;;;;;;;16.75;9.90;;;;;;;24.87;52.63;101530.44;5073913;28;20435;-74
2022/07/22 09:03:56;;;;;;;11.95;9.73;;;;;;;25.17;52.51;101565.75;5091540;28;20087;-75
2022/07/22 09:06:32;;;;;;;11.63;9.63;;;;;;;25.07;51.84;101562.78;5073882;28;20487;-72
2022/07/22 09:09:09;;;;;;;16.30;9.57;;;;;;;25.11;51.95;101572.13;5074220;28;20036;-70
2022/07/22 09:11:34;;;;;;;13.48;9.27;;;;;;;25.16;53.20;101570.38;5073992;28;20063;-71
2022/07/22 09:14:01;;;;;;;20.17;10.60;;;;;;;25.21;51.92;101567.75;5091904;28;20067;-69
2022/07/22 09:16:47;;;;;;;14.98;11.00;;;;;;;25.22;50.94;101561.22;5057102;28;20040;-69
2022/07/22 09:19:16;;;;;;;14.93;9.68;;;;;;;25.23;51.92;101567.50;5092114;28;20568;-72
2022/07/22 09:21:47;;;;;;;12.23;8.27;;;;;;;25.27;51.64;101564.03;5057077;28;20035;-70
2022/07/22 09:24:33;;;;;;;10.05;8.45;;;;;;;25.31;50.88;101570.69;5092017;28;20093;-69
2022/07/22 09:26:59;;;;;;;10.80;9.23;;;;;;;25.27;49.16;101552.31;5073808;28;20451;-69
2022/07/22 09:29:24;;;;;;;12.05;8.70;;;;;;;25.07;49.53;101521.91;5092297;28;20070;-70
2022/07/22 09:31:52;;;;;;;13.32;9.93;;;;;;;25.22;49.70;101538.59;5073835;28;20106;-76
2022/07/22 09:34:36;;;;;;;13.30;9.82;;;;;;;25.45;50.61;101554.88;5072937;28;20051;-73
2022/07/22 09:37:02;;;;;;;13.88;9.82;;;;;;;25.45;50.30;101549.44;5073421;28;20414;-72
2022/07/22 09:39:30;;;;;;;10.75;9.30;;;;;;;25.37;49.52;101533.44;5057225;28;20036;-71
2022/07/22 09:42:05;;;;;;;15.80;9.65;;;;;;;25.42;49.91;101532.69;5077432;28;20036;-77
2022/07/22 09:44:43;;;;;;;10.75;9.13;;;;;;;25.49;48.58;101533.41;5077263;28;20443;-76
2022/07/22 09:47:28;;;;;;;13.60;10.20;;;;;;;25.46;49.87;101529.25;5095328;28;20024;-70
2022/07/22 09:49:53;;;;;;;12.93;9.38;;;;;;;25.59;49.30;101534.41;5096204;28;20042;-73
2022/07/22 09:52:20;;;;;;;16.33;9.65;;;;;;;25.72;47.67;101543.41;5077183;28;20040;-70
2022/07/22 09:54:46;;;;;;;21.25;10.25;;;;;;;25.65;48.32;101532.59;5095241;28;20639;-72
2022/07/22 09:57:36;;;;;;;18.42;10.25;;;;;;;25.76;48.55;101547.31;5095178;28;20090;-73
2022/07/22 10:00:05;;;;;;;12.32;9.02;;;;;;;25.74;47.46;101546.75;5095630;28;20040;-73
2022/07/22 10:02:32;;;;;;;13.93;9.93;;;;;;;25.74;47.75;101546.75;5095631;28;20048;-68
2022/07/22 10:05:00;;;;;;;13.60;9.52;;;;;;;25.76;48.79;101547.31;5095403;28;20066;-71
2022/07/22 10:07:27;;;;;;;13.93;9.13;;;;;;;25.89;47.37;101550.56;5077620;28;20580;-68
2022/07/22 10:09:53;;;;;;;15.85;9.43;;;;;;;25.95;46.39;101551.47;5095532;28;20605;-66
2022/07/22 10:12:19;;;;;;;15.35;9.50;;;;;;;25.98;46.14;101542.78;5095255;28;20047;-66
2022/07/22 10:14:46;;;;;;;12.30;8.38;;;;;;;25.91;44.26;101533.94;5095503;28;20028;-68
2022/07/22 10:17:13;;;;;;;10.27;8.43;;;;;;;26.01;43.10;101536.84;5095507;28;20036;-69
2022/07/22 10:19:39;;;;;;;13.25;7.70;;;;;;;26.03;42.89;101533.91;5095437;28;20028;-73
2022/07/22 10:22:41;;;;;;;12.07;8.50;;;;;;;26.10;43.59;101531.81;5095388;28;20036;-73
2022/07/22 10:25:08;;;;;;;12.10;9.20;;;;;;;26.13;45.22;101518.50;5095097;28;20403;-70
2022/07/22 10:28:04;;;;;;;16.63;11.18;;;;;;;26.31;46.01;101525.63;5095513;28;20043;-68
2022/07/22 10:30:38;;;;;;;22.98;10.65;;;;;;;26.29;44.78;101521.47;5093032;28;20059;-72
2022/07/22 10:33:11;;;;;;;12.55;8.68;;;;;;;26.28;45.08;101531.56;5076797;28;20055;-70
2022/07/22 10:35:54;;;;;;;12.85;9.77;;;;;;;26.30;45.52;101514.94;5095332;28;20044;-69
2022/07/22 10:38:21;;;;;;;13.90;9.68;;;;;;;26.22;44.93;101500.63;5094967;28;20043;-67
2022/07/22 10:41:16;;;;;;;13.52;10.35;;;;;;;26.41;45.36;101522.25;5095041;28;20032;-66
2022/07/22 10:43:41;;;;;;;16.55;10.93;;;;;;;26.47;45.39;101516.63;5090805;28;20054;-68
2022/07/22 10:46:06;;;;;;;13.98;10.82;;;;;;;26.50;44.94;101518.03;5076744;28;20139;-68
2022/07/22 10:48:32;;;;;;;13.55;10.00;;;;;;;26.54;46.74;101513.72;5094724;28;20063;-68
2022/07/22 10:51:13;;;;;;;17.15;11.07;;;;;;;26.62;45.60;101526.97;5094037;28;20032;-68
2022/07/22 10:53:43;;;;;;;16.20;10.73;;;;;;;26.62;46.27;101515.22;5094604;28;20028;-68
2022/07/22 10:56:13;;;;;;;15.20;11.52;;;;;;;26.55;45.59;101513.44;5094533;28;20032;-75
2022/07/22 10:58:44;;;;;;;14.07;10.57;;;;;;;26.47;46.83;101496.66;5094785;28;20040;-72
2022/07/22 11:01:15;;;;;;;22.13;11.93;;;;;;;26.53;48.01;101499.22;5076356;28;20043;-67
2022/07/22 11:03:42;;;;;;;15.48;10.93;;;;;;;26.68;46.65;101515.03;5094387;28;20044;-68
2022/07/22 11:06:22;;;;;;;19.77;10.63;;;;;;;26.69;46.83;101516.69;5094402;28;20032;-69
2022/07/22 11:08:51;;;;;;;16.17;11.90;;;;;;;26.71;46.39;101508.22;5094050;28;20403;-68
2022/07/22 11:11:17;;;;;;;20.90;12.38;;;;;;;26.74;46.41;101515.91;5094039;28;20040;-70
2022/07/22 11:13:44;;;;;;;15.10;12.10;;;;;;;26.72;46.69;101507.16;5076159;28;20122;-69
2022/07/22 11:16:20;;;;;;;15.15;11.38;;;;;;;26.77;47.09;101518.97;5094071;28;20036;-70
2022/07/22 11:18:54;;;;;;;13.57;11.48;;;;;;;26.76;46.92;101495.44;5093899;28;20035;-69
2022/07/22 11:21:22;;;;;;;18.38;12.18;;;;;;;26.71;46.99;101487.19;5093829;28;20039;-74